Terminal Aerodrome Forecast
Issued by NWS

Home | Current Version | Previous Version | Text Only | Print | Product List | Glossary On
Versions: 1 2 3 4 5 6 7 8 9 10 11 12 13 14 15 16 17 18 19
000
FTUS41 KPBZ 242300
TAFZZV
TAF
KZZV 242320Z 2500/2524 26015G30KT P6SM SCT007 OVC012
      TEMPO 2500/2502 4SM -SHRA BKN007
     FM250200 27012G26KT P6SM OVC008
     FM251200 24014G24KT P6SM OVC022
     FM251600 25012G22KT P6SM BKN035=

USA.gov is the U.S. government's official web portal to all federal, state and local government web resources and services.